Time;durP1;ratioP1;P1;durP2;ratioP2;P2;SDS_P1;SDS_P2;PMS_P1;PMS_P2;Temp;Humidity;BMP_temperature;BMP_pressure;BME280_temperature;BME280_humidity;BME280_pressure;Samples;Min_cycle;Max_cycle;Signal;HPM_P1;HPM_P2
2022/03/29 03:53:35;;;;;;;11.65;6.65;;;;;;;6.54;57.39;99600.53;5007088;28;106742;-71
2022/03/29 03:56:00;;;;;;;12.63;6.90;;;;;;;6.49;57.78;99606.28;5005771;28;105924;-71
2022/03/29 03:58:26;;;;;;;12.60;6.82;;;;;;;6.46;58.37;99608.44;5005165;28;105811;-71
2022/03/29 04:00:51;;;;;;;14.25;6.78;;;;;;;6.44;58.63;99606.75;5005061;28;106447;-71
2022/03/29 04:03:17;;;;;;;14.10;7.55;;;;;;;6.46;58.89;99605.78;5004975;28;106085;-72
2022/03/29 04:05:43;;;;;;;14.38;8.00;;;;;;;6.47;59.17;99607.44;5005180;28;106323;-72
2022/03/29 04:08:08;;;;;;;13.23;7.85;;;;;;;6.47;59.13;99604.81;5004958;28;106188;-72
2022/03/29 04:10:33;;;;;;;15.95;7.93;;;;;;;6.49;59.45;99611.56;5004232;28;110622;-72
2022/03/29 04:13:00;;;;;;;14.25;7.32;;;;;;;6.50;59.65;99612.41;5003887;28;106077;-71
2022/03/29 04:15:26;;;;;;;13.95;7.65;;;;;;;6.50;59.86;99607.13;5005335;28;106208;-72
2022/03/29 04:17:51;;;;;;;13.55;7.53;;;;;;;6.50;59.93;99613.25;5004011;28;106782;-72
2022/03/29 04:20:16;;;;;;;16.33;8.98;;;;;;;6.50;60.08;99612.41;5004019;28;105954;-72
2022/03/29 04:22:42;;;;;;;17.30;9.52;;;;;;;6.47;60.00;99618.03;5004468;28;106089;-71
2022/03/29 04:25:08;;;;;;;19.60;11.05;;;;;;;6.46;60.09;99616.38;5004847;28;105968;-71
2022/03/29 04:27:33;;;;;;;14.43;9.23;;;;;;;6.46;60.41;99616.38;5003807;28;106346;-72
2022/03/29 04:29:58;;;;;;;17.23;10.25;;;;;;;6.46;60.52;99611.06;5004486;28;105904;-72
2022/03/29 04:32:24;;;;;;;19.33;10.68;;;;;;;6.44;60.57;99614.69;5003271;28;110958;-72
2022/03/29 04:34:49;;;;;;;18.85;10.05;;;;;;;6.43;60.45;99606.94;5002599;28;105754;-72
2022/03/29 04:37:15;;;;;;;18.08;9.93;;;;;;;6.42;61.04;99606.09;5002021;28;105809;-72
2022/03/29 04:39:40;;;;;;;17.98;10.45;;;;;;;6.41;60.95;99604.44;5004106;28;105940;-74
2022/03/29 04:42:06;;;;;;;13.50;8.77;;;;;;;6.41;61.07;99609.75;5002313;28;106163;-71
2022/03/29 04:44:34;;;;;;;16.65;9.55;;;;;;;6.41;60.72;99615.03;5005147;28;105830;-71
2022/03/29 04:47:00;;;;;;;17.92;8.77;;;;;;;6.42;61.07;99618.50;5004431;28;106130;-71
2022/03/29 04:49:25;;;;;;;14.75;7.80;;;;;;;6.41;61.12;99617.69;5003223;28;106538;-71
2022/03/29 04:51:50;;;;;;;13.00;7.47;;;;;;;6.43;61.13;99620.16;5003783;28;106092;-71
2022/03/29 04:54:16;;;;;;;15.02;8.63;;;;;;;6.44;61.65;99620.00;5004229;28;106432;-71
2022/03/29 04:56:42;;;;;;;16.02;7.75;;;;;;;6.45;61.45;99626.09;5021042;28;106260;-71
2022/03/29 04:59:07;;;;;;;13.13;7.63;;;;;;;6.48;61.40;99619.69;5090805;28;20124;-70
2022/03/29 05:01:33;;;;;;;12.13;7.75;;;;;;;6.52;61.59;99621.00;5090731;28;20067;-72
2022/03/29 05:03:59;;;;;;;13.15;8.32;;;;;;;6.59;61.52;99616.78;5082669;28;20834;-72
2022/03/29 05:06:24;;;;;;;16.02;8.57;;;;;;;6.65;61.72;99624.06;5076791;28;20052;-71
2022/03/29 05:08:50;;;;;;;13.73;8.65;;;;;;;6.74;61.71;99620.47;5076625;28;20362;-72
2022/03/29 05:11:15;;;;;;;16.98;8.80;;;;;;;6.82;61.84;99621.47;5076849;28;20036;-71
2022/03/29 05:13:41;;;;;;;16.92;9.10;;;;;;;6.90;61.66;99614.41;5076764;28;20025;-75
2022/03/29 05:16:06;;;;;;;13.32;8.60;;;;;;;7.04;61.76;99628.00;5076552;28;20037;-72
2022/03/29 05:18:31;;;;;;;16.08;8.52;;;;;;;7.17;61.99;99619.59;5076542;28;20056;-72
2022/03/29 05:20:57;;;;;;;16.27;9.57;;;;;;;7.29;61.28;99618.31;5076968;28;20028;-71
2022/03/29 05:23:23;;;;;;;17.73;8.05;;;;;;;7.42;61.57;99620.47;5076635;28;20072;-71
2022/03/29 05:25:49;;;;;;;15.30;8.95;;;;;;;7.55;61.61;99617.34;5076754;28;20413;-71
2022/03/29 05:28:15;;;;;;;17.95;8.27;;;;;;;7.71;61.11;99624.47;5075885;28;20040;-71
2022/03/29 05:30:41;;;;;;;16.48;8.43;;;;;;;7.84;61.04;99619.50;5076489;28;20128;-71
2022/03/29 05:33:06;;;;;;;20.65;9.00;;;;;;;7.97;61.39;99625.13;5076651;28;20497;-72
2022/03/29 05:35:33;;;;;;;16.08;8.45;;;;;;;8.12;61.23;99619.97;5076317;28;20074;-73
2022/03/29 05:38:01;;;;;;;17.08;8.90;;;;;;;8.29;60.97;99630.56;5076092;28;20485;-73
2022/03/29 05:40:28;;;;;;;21.02;9.38;;;;;;;8.44;60.86;99625.38;5076525;28;20029;-72
2022/03/29 05:42:54;;;;;;;17.08;9.18;;;;;;;8.60;60.33;99624.53;5075792;28;20033;-71
2022/03/29 05:45:20;;;;;;;12.02;8.27;;;;;;;8.76;59.94;99619.16;5075602;28;20025;-73
2022/03/29 05:50:31;;;;;;;16.85;8.68;;;;;;;9.03;59.03;99638.28;5076271;28;20528;-73
2022/03/29 05:52:57;;;;;;;13.70;7.78;;;;;;;9.08;59.10;99633.28;5074361;28;20141;-72
2022/03/29 05:55:24;;;;;;;18.85;8.52;;;;;;;9.12;58.90;99631.13;5076232;28;20882;-73
2022/03/29 05:57:49;;;;;;;18.23;8.80;;;;;;;9.18;59.03;99630.41;5075892;28;20021;-72
2022/03/29 06:00:16;;;;;;;15.05;8.45;;;;;;;9.25;58.05;99635.84;5075195;28;20083;-72
2022/03/29 06:02:43;;;;;;;13.43;7.80;;;;;;;9.31;58.74;99643.94;5076178;28;20025;-73
2022/03/29 06:05:09;;;;;;;16.00;8.45;;;;;;;9.37;58.74;99642.41;5076249;28;20029;-72
2022/03/29 06:07:35;;;;;;;15.00;8.40;;;;;;;9.47;58.41;99640.38;5075969;28;20477;-72
2022/03/29 06:10:02;;;;;;;13.85;8.35;;;;;;;9.56;58.03;99635.81;5075728;28;21272;-73
2022/03/29 06:12:28;;;;;;;13.55;7.88;;;;;;;9.63;57.82;99638.59;5075994;28;20059;-73
2022/03/29 06:14:53;;;;;;;19.48;8.02;;;;;;;9.64;57.33;99635.75;5075094;28;20078;-72
2022/03/29 06:17:19;;;;;;;12.40;7.35;;;;;;;9.61;56.90;99636.13;5075048;28;20470;-72
2022/03/29 06:19:45;;;;;;;12.80;7.57;;;;;;;9.57;57.01;99642.78;5075677;28;20486;-72
2022/03/29 06:22:10;;;;;;;11.15;7.28;;;;;;;9.56;57.08;99650.94;5074978;28;20033;-74
2022/03/29 06:24:36;;;;;;;12.10;7.78;;;;;;;9.55;57.42;99641.31;5075605;28;20095;-76
2022/03/29 06:27:01;;;;;;;12.95;7.65;;;;;;;9.59;56.78;99650.59;5075348;28;20025;-75
2022/03/29 06:29:27;;;;;;;14.45;7.78;;;;;;;9.59;56.99;99646.09;5074047;28;20029;-74
2022/03/29 06:31:53;;;;;;;12.95;7.93;;;;;;;9.63;57.17;99651.88;5075456;28;20033;-76
2022/03/29 06:34:19;;;;;;;16.65;7.97;;;;;;;9.72;56.59;99648.16;5073898;28;20025;-79
2022/03/29 06:36:44;;;;;;;17.05;7.90;;;;;;;9.80;56.81;99647.25;5075545;28;20037;-75
2022/03/29 06:39:12;;;;;;;11.70;7.30;;;;;;;9.86;56.19;99653.72;5074927;28;20478;-75
2022/03/29 06:41:38;;;;;;;16.13;7.07;;;;;;;9.93;55.71;99649.34;5074957;28;20036;-74
2022/03/29 06:44:06;;;;;;;14.98;8.15;;;;;;;10.03;56.23;99654.41;5074713;28;20052;-77
2022/03/29 06:46:31;;;;;;;15.45;6.90;;;;;;;10.11;55.97;99652.47;5074906;28;20119;-76
2022/03/29 06:48:57;;;;;;;14.60;7.70;;;;;;;10.20;55.43;99649.75;5075445;28;20041;-76
2022/03/29 06:51:23;;;;;;;15.80;8.02;;;;;;;10.25;55.20;99650.03;5074661;28;20061;-75
2022/03/29 06:53:48;;;;;;;13.63;8.65;;;;;;;10.17;54.88;99645.63;5075613;28;20128;-73
2022/03/29 06:56:15;;;;;;;14.25;8.50;;;;;;;10.24;55.42;99645.75;5074791;28;20067;-68
2022/03/29 06:58:40;;;;;;;17.25;9.15;;;;;;;10.40;55.47;99650.09;5074948;28;20040;-76
2022/03/29 07:01:06;;;;;;;20.13;7.57;;;;;;;10.47;54.78;99646.53;5075169;28;20028;-77
2022/03/29 07:03:32;;;;;;;14.20;7.43;;;;;;;10.62;54.91;99656.34;5075394;28;20086;-69
2022/03/29 07:05:58;;;;;;;13.68;7.55;;;;;;;10.79;54.70;99649.81;5074813;28;20068;-74
2022/03/29 07:08:25;;;;;;;12.35;7.25;;;;;;;10.92;54.05;99648.34;5074676;28;20083;-76
2022/03/29 07:13:34;;;;;;;13.55;7.43;;;;;;;11.23;53.43;99650.75;5074806;28;20036;-74
2022/03/29 07:15:59;;;;;;;11.85;7.18;;;;;;;11.30;53.13;99654.34;5074822;28;20029;-74
2022/03/29 07:18:25;;;;;;;17.23;7.38;;;;;;;11.42;53.39;99649.31;5074745;28;20060;-75
2022/03/29 07:20:50;;;;;;;11.55;7.15;;;;;;;11.51;52.56;99648.19;5074570;28;20107;-74
2022/03/29 07:23:15;;;;;;;18.27;7.22;;;;;;;11.65;52.21;99651.00;5074927;28;20124;-76
2022/03/29 07:25:41;;;;;;;17.25;7.75;;;;;;;11.67;51.62;99649.78;5074366;28;20104;-78
2022/03/29 07:28:11;;;;;;;11.48;7.03;;;;;;;11.79;52.42;99642.09;5073891;28;20071;-75
2022/03/29 07:30:38;;;;;;;12.27;7.47;;;;;;;11.99;52.08;99649.50;5074779;28;20095;-74
2022/03/29 07:33:04;;;;;;;16.95;8.23;;;;;;;12.04;51.75;99644.38;5074163;28;20473;-73
2022/03/29 07:35:30;;;;;;;13.48;8.13;;;;;;;12.04;51.57;99647.03;5074539;28;20037;-75
2022/03/29 07:37:56;;;;;;;20.80;9.38;;;;;;;11.94;50.37;99641.19;5073823;28;20032;-67
2022/03/29 07:40:24;;;;;;;15.32;8.13;;;;;;;11.95;51.36;99645.56;5073792;28;20187;-74
2022/03/29 07:42:50;;;;;;;20.05;11.15;;;;;;;11.89;50.55;99646.28;5073932;28;20029;-74
2022/03/29 07:45:16;;;;;;;24.65;12.45;;;;;;;11.81;50.71;99642.75;5071813;28;20037;-73
2022/03/29 07:47:43;;;;;;;24.63;13.55;;;;;;;11.73;50.71;99644.69;5073698;28;20486;-76
2022/03/29 07:50:11;;;;;;;26.45;12.80;;;;;;;11.68;51.05;99642.59;5073468;28;20034;-74
2022/03/29 07:52:38;;;;;;;26.30;14.68;;;;;;;11.75;50.23;99637.34;5072934;28;20075;-70
2022/03/29 07:55:06;;;;;;;25.25;14.88;;;;;;;11.98;50.35;99631.81;5073889;28;20028;-76
2022/03/29 07:57:32;;;;;;;27.50;15.32;;;;;;;12.22;50.37;99630.56;5072325;28;20048;-75
2022/03/29 07:59:58;;;;;;;27.80;14.63;;;;;;;12.51;49.94;99626.84;5073897;28;20036;-75
2022/03/29 08:02:23;;;;;;;26.23;14.88;;;;;;;12.73;49.26;99626.75;5074609;28;20037;-79
2022/03/29 08:04:48;;;;;;;22.75;12.57;;;;;;;13.11;49.67;99625.44;5074304;28;20104;-79
2022/03/29 08:07:14;;;;;;;23.73;13.73;;;;;;;13.43;48.94;99628.47;5073426;28;28631;-79
2022/03/29 08:09:39;;;;;;;23.23;13.65;;;;;;;13.48;48.23;99616.13;5074337;28;20025;-76
2022/03/29 08:12:05;;;;;;;24.48;15.35;;;;;;;13.40;47.04;99618.19;5074177;28;20123;-76
2022/03/29 08:14:30;;;;;;;26.80;14.30;;;;;;;13.40;47.43;99626.22;5073674;28;20051;-80
2022/03/29 08:16:56;;;;;;;27.08;15.40;;;;;;;13.44;46.86;99625.59;5073661;28;20473;-76
2022/03/29 08:19:22;;;;;;;21.25;12.70;;;;;;;13.46;47.06;99618.16;5073638;28;20033;-77
2022/03/29 08:21:49;;;;;;;22.40;13.52;;;;;;;13.56;46.71;99611.59;5073879;28;20076;-75
2022/03/29 08:24:18;;;;;;;24.60;13.95;;;;;;;13.61;46.73;99619.84;5073616;28;20505;-73
2022/03/29 08:26:48;;;;;;;23.30;15.02;;;;;;;13.67;46.69;99613.69;5073255;28;20033;-75
2022/03/29 08:29:16;;;;;;;23.23;13.20;;;;;;;13.73;46.59;99617.41;5073698;28;20485;-74
2022/03/29 08:31:45;;;;;;;24.77;14.57;;;;;;;13.70;45.94;99624.78;5073459;28;20029;-76
2022/03/29 08:34:11;;;;;;;22.63;13.70;;;;;;;13.63;46.22;99620.47;5073493;28;20057;-77
2022/03/29 08:36:38;;;;;;;24.38;13.82;;;;;;;13.40;45.46;99619.00;5073608;28;20104;-74
2022/03/29 08:39:04;;;;;;;24.73;13.15;;;;;;;13.29;46.33;99611.53;5075229;28;20025;-76
2022/03/29 08:41:37;;;;;;;24.33;13.23;;;;;;;13.28;46.14;99620.59;5077415;28;20029;-75
2022/03/29 08:44:03;;;;;;;20.67;13.00;;;;;;;13.33;45.95;99628.84;5077194;28;20033;-74
2022/03/29 08:46:33;;;;;;;22.55;12.50;;;;;;;13.27;45.49;99618.94;5076590;28;20047;-77
2022/03/29 08:48:59;;;;;;;20.13;13.68;;;;;;;13.12;45.85;99627.09;5077330;28;20033;-75
2022/03/29 08:51:26;;;;;;;21.70;13.63;;;;;;;13.06;45.47;99620.72;5076760;28;20081;-76
2022/03/29 08:53:51;;;;;;;22.83;13.40;;;;;;;12.93;45.71;99613.47;5077322;28;20108;-75
2022/03/29 08:56:17;;;;;;;27.60;15.30;;;;;;;12.98;46.26;99618.22;5076482;28;20029;-76
2022/03/29 08:58:42;;;;;;;23.02;13.60;;;;;;;13.10;46.14;99618.47;5075968;28;20025;-76
2022/03/29 09:01:08;;;;;;;25.23;13.48;;;;;;;13.37;46.00;99624.75;5076637;28;20051;-76
2022/03/29 09:03:33;;;;;;;25.95;15.48;;;;;;;14.22;45.80;99621.50;5076631;28;20037;-75
2022/03/29 09:06:07;;;;;;;26.58;14.60;;;;;;;15.69;43.87;99612.84;5076508;28;20056;-76
2022/03/29 09:08:45;;;;;;;18.25;11.63;;;;;;;15.60;41.60;99613.34;5076535;28;20087;-78
2022/03/29 09:11:12;;;;;;;22.50;13.98;;;;;;;15.10;41.64;99622.91;5076787;28;20119;-77
2022/03/29 09:13:37;;;;;;;22.55;14.38;;;;;;;14.74;41.68;99621.63;5076273;28;20029;-76
2022/03/29 09:16:03;;;;;;;21.85;14.13;;;;;;;14.54;42.37;99613.59;5076403;28;20029;-77
2022/03/29 09:18:30;;;;;;;27.35;15.32;;;;;;;14.53;42.69;99611.97;5076953;28;20037;-73
2022/03/29 09:21:25;;;;;;;24.95;13.95;;;;;;;14.78;42.41;99609.44;5077054;28;20029;-75
2022/03/29 09:24:08;;;;;;;22.27;14.50;;;;;;;14.96;42.25;99611.41;5071412;28;20119;-76
2022/03/29 09:26:37;;;;;;;21.83;14.48;;;;;;;15.19;41.73;99613.56;5076902;28;20056;-79
2022/03/29 09:29:03;;;;;;;23.20;14.75;;;;;;;15.03;40.98;99611.38;5076262;28;20040;-77
2022/03/29 09:31:29;;;;;;;24.00;14.23;;;;;;;14.65;41.43;99604.94;5076046;28;20029;-76
2022/03/29 09:34:18;;;;;;;22.90;14.35;;;;;;;14.35;41.40;99605.41;5076833;28;20183;-77
2022/03/29 09:36:50;;;;;;;24.55;15.20;;;;;;;14.18;41.92;99596.16;5076301;28;20037;-75
2022/03/29 09:39:49;;;;;;;25.40;15.48;;;;;;;14.48;42.62;99604.53;5076155;28;20063;-77
2022/03/29 09:42:17;;;;;;;24.70;15.85;;;;;;;14.75;42.00;99603.66;5062809;28;20127;-76
2022/03/29 09:44:45;;;;;;;25.25;15.93;;;;;;;14.86;41.85;99594.97;5075989;28;20037;-78
2022/03/29 09:47:13;;;;;;;26.33;15.80;;;;;;;15.11;41.73;99597.72;5075684;28;20094;-77
2022/03/29 09:50:01;;;;;;;24.90;15.55;;;;;;;15.26;40.81;99593.94;5075868;28;20142;-77
2022/03/29 09:52:35;;;;;;;25.70;15.57;;;;;;;15.01;40.02;99586.66;5075878;28;20821;-75
2022/03/29 09:55:15;;;;;;;26.23;15.40;;;;;;;14.85;41.05;99594.13;5076775;28;20033;-75
2022/03/29 09:57:41;;;;;;;22.88;14.98;;;;;;;15.69;40.92;99587.84;5076664;28;20029;-77
2022/03/29 10:00:09;;;;;;;21.08;14.75;;;;;;;17.32;38.97;99579.50;5075770;28;20039;-76
2022/03/29 10:02:36;;;;;;;26.05;14.95;;;;;;;17.69;37.03;99582.03;5075796;28;20037;-75
2022/03/29 10:05:03;;;;;;;27.40;16.48;;;;;;;17.63;36.37;99571.34;5076076;28;20061;-85
2022/03/29 10:07:33;;;;;;;27.40;15.35;;;;;;;17.60;36.59;99572.63;5076101;28;20037;-76
2022/03/29 10:09:58;;;;;;;27.60;16.97;;;;;;;16.99;36.21;99575.41;5077402;28;20036;-76
2022/03/29 10:12:24;;;;;;;26.00;16.27;;;;;;;17.48;36.68;99575.34;5084907;28;20271;-77
2022/03/29 10:14:51;;;;;;;22.73;14.13;;;;;;;18.07;35.46;99570.03;5078946;28;20033;-78
2022/03/29 10:17:17;;;;;;;24.35;14.45;;;;;;;18.16;35.45;99570.47;5075708;28;20542;-74
2022/03/29 10:19:44;;;;;;;23.83;14.88;;;;;;;18.00;35.16;99573.88;5075585;28;20054;-77
2022/03/29 10:22:12;;;;;;;23.10;14.25;;;;;;;17.96;35.32;99573.53;5075103;28;20025;-73
2022/03/29 10:24:38;;;;;;;23.27;14.90;;;;;;;17.45;35.46;99570.38;5083371;28;20044;-74
2022/03/29 10:27:05;;;;;;;22.92;15.88;;;;;;;17.76;36.16;99566.56;5085585;28;20522;-78
2022/03/29 10:29:31;;;;;;;25.20;16.10;;;;;;;19.17;34.58;99565.78;5084932;28;20040;-79
2022/03/29 10:32:02;;;;;;;25.60;15.52;;;;;;;20.86;32.14;99558.56;5084898;28;20845;-77
2022/03/29 10:34:37;;;;;;;24.83;16.08;;;;;;;22.67;30.90;99552.63;5081457;28;20121;-74
2022/03/29 10:37:17;;;;;;;26.30;15.82;;;;;;;23.09;29.16;99559.81;5092762;28;20029;-75
2022/03/29 10:39:55;;;;;;;24.23;15.80;;;;;;;23.41;28.38;99559.59;5095511;28;20745;-75
2022/03/29 10:42:23;;;;;;;26.77;16.08;;;;;;;22.86;28.58;99555.69;5095617;28;20028;-76
2022/03/29 10:45:10;;;;;;;25.80;17.05;;;;;;;22.76;28.05;99560.00;5093876;28;20047;-72
2022/03/29 10:47:37;;;;;;;25.92;16.88;;;;;;;22.35;28.71;99548.13;5075355;28;20490;-77
2022/03/29 10:50:05;;;;;;;26.08;17.23;;;;;;;22.27;28.42;99555.69;5074668;28;20100;-79
2022/03/29 10:52:38;;;;;;;28.88;17.70;;;;;;;22.91;28.26;99556.50;5074993;28;20037;-78
2022/03/29 10:55:15;;;;;;;25.90;17.15;;;;;;;24.57;26.68;99544.44;5075109;28;20037;-77
2022/03/29 10:57:40;;;;;;;25.45;16.75;;;;;;;24.84;25.67;99546.78;5075325;28;20021;-77
2022/03/29 11:00:12;;;;;;;27.05;16.95;;;;;;;24.22;25.44;99554.38;5074701;28;20029;-79
2022/03/29 11:02:38;;;;;;;24.02;16.38;;;;;;;24.88;25.47;99552.50;5074156;28;20029;-77
2022/03/29 11:05:12;;;;;;;25.77;16.05;;;;;;;25.10;24.44;99548.56;5074654;28;20033;-77
2022/03/29 11:08:00;;;;;;;24.75;15.40;;;;;;;25.43;23.86;99551.63;5074763;28;20029;-78
2022/03/29 11:10:43;;;;;;;21.85;13.25;;;;;;;25.24;22.53;99546.81;5070954;28;20040;-78
2022/03/29 11:13:32;;;;;;;21.38;13.93;;;;;;;24.72;23.42;99542.78;5074116;28;20104;-75
2022/03/29 11:16:02;;;;;;;21.35;14.18;;;;;;;25.12;23.08;99541.72;5062058;28;20033;-74
2022/03/29 11:18:30;;;;;;;20.75;13.73;;;;;;;24.54;23.33;99544.22;5074411;28;20072;-80
2022/03/29 11:21:02;;;;;;;21.83;13.60;;;;;;;23.28;24.52;99547.38;5076556;28;20155;-78
2022/03/29 11:23:37;;;;;;;20.55;12.55;;;;;;;23.04;25.42;99546.22;5074122;28;20887;-75
2022/03/29 11:26:12;;;;;;;21.13;13.23;;;;;;;24.35;24.54;99535.84;5074864;28;20040;-77
2022/03/29 11:28:48;;;;;;;20.27;14.10;;;;;;;24.91;23.30;99532.88;5074012;28;20079;-76
2022/03/29 11:31:14;;;;;;;16.85;12.50;;;;;;;25.53;23.03;99532.44;5065025;28;20847;-79
2022/03/29 11:33:40;;;;;;;16.90;12.30;;;;;;;27.55;21.34;99537.06;5074015;28;20032;-79
2022/03/29 11:36:07;;;;;;;19.15;13.25;;;;;;;28.47;20.14;99526.34;5074252;28;20478;-74
2022/03/29 11:38:33;;;;;;;14.95;11.93;;;;;;;30.06;18.88;99523.69;5074730;28;20087;-82
2022/03/29 11:41:00;;;;;;;15.88;12.00;;;;;;;30.20;18.49;99521.63;5074253;28;20116;-74
2022/03/29 11:43:26;;;;;;;19.75;13.15;;;;;;;30.37;17.43;99507.13;5073972;28;20095;-78
2022/03/29 11:45:53;;;;;;;20.60;12.68;;;;;;;29.57;17.57;99512.59;5074038;28;20033;-72
2022/03/29 11:48:21;;;;;;;19.58;13.45;;;;;;;27.80;19.20;99507.63;5073563;28;20032;-71
2022/03/29 11:50:52;;;;;;;18.25;13.48;;;;;;;28.45;18.84;99506.66;5074100;28;20100;-73
2022/03/29 11:53:22;;;;;;;18.45;12.90;;;;;;;29.66;18.36;99488.75;5073870;28;20513;-78
2022/03/29 11:55:53;;;;;;;;;;;;;;;30.10;17.68;99491.72;5074986;28;20025;-81
2022/03/29 11:58:37;;;;;;;20.08;14.18;;;;;;;28.59;18.58;99483.91;5074342;28;19920;-72
2022/03/29 12:01:05;;;;;;;22.33;15.25;;;;;;;27.46;19.58;99492.38;5074437;28;20061;-77
2022/03/29 12:03:33;;;;;;;21.17;13.98;;;;;;;26.17;20.33;99481.31;5075917;28;20477;-77
2022/03/29 12:06:09;;;;;;;16.75;13.60;;;;;;;25.90;20.95;99481.88;5073421;28;20037;-73
2022/03/29 12:08:49;;;;;;;18.15;13.73;;;;;;;25.55;21.60;99475.72;5074317;28;20037;-75
2022/03/29 12:11:17;;;;;;;18.75;12.75;;;;;;;25.26;22.03;99475.66;5051265;28;105865;-75
2022/03/29 12:13:44;;;;;;;17.95;13.48;;;;;;;25.33;21.69;99474.28;5009311;28;106264;-79
2022/03/29 12:16:23;;;;;;;18.23;13.55;;;;;;;25.54;21.46;99479.53;5077105;28;20033;-74
2022/03/29 12:18:49;;;;;;;20.23;12.73;;;;;;;25.53;21.23;99477.09;5077124;28;20041;-67
2022/03/29 12:21:17;;;;;;;18.73;13.07;;;;;;;25.60;21.37;99466.66;5077320;28;20721;-66
2022/03/29 12:23:43;;;;;;;20.70;13.43;;;;;;;25.33;21.14;99474.28;5062519;28;105106;-71
2022/03/29 12:26:13;;;;;;;16.85;12.70;;;;;;;24.12;22.06;99457.25;4989403;28;106816;-79
2022/03/29 12:28:40;;;;;;;22.70;16.55;;;;;;;22.80;23.63;99471.50;4988578;28;106872;-73
2022/03/29 12:31:11;;;;;;;18.40;12.55;;;;;;;22.14;24.49;99466.63;4990044;28;106255;-72
2022/03/29 12:33:38;;;;;;;17.83;13.68;;;;;;;21.30;25.29;99458.25;4989585;28;105768;-72
2022/03/29 12:36:15;;;;;;;17.02;12.73;;;;;;;21.12;26.53;99460.28;4989252;28;106700;-72
2022/03/29 12:38:46;;;;;;;18.73;13.93;;;;;;;22.05;25.38;99443.81;4988112;28;106051;-76
2022/03/29 12:41:13;;;;;;;18.23;12.98;;;;;;;22.63;24.48;99444.56;4989340;28;106105;-75
2022/03/29 12:43:41;;;;;;;20.10;12.32;;;;;;;22.92;24.10;99433.22;4994330;28;106325;-76
2022/03/29 12:46:09;;;;;;;17.65;12.05;;;;;;;22.88;23.96;99431.31;4994686;28;106461;-79
2022/03/29 12:48:41;;;;;;;26.13;13.35;;;;;;;22.36;24.31;99427.69;4989874;28;105881;-74
2022/03/29 12:51:07;;;;;;;19.45;13.65;;;;;;;22.07;24.83;99426.19;4990157;28;105902;-74
2022/03/29 12:53:34;;;;;;;19.38;12.27;;;;;;;22.33;24.58;99428.19;4990021;28;105948;-79
2022/03/29 12:56:04;;;;;;;15.50;11.50;;;;;;;22.87;23.92;99419.63;4989406;28;106363;-76
2022/03/29 12:58:31;;;;;;;18.58;12.43;;;;;;;23.01;23.70;99410.97;4987385;28;106452;-73
2022/03/29 13:00:57;;;;;;;17.88;12.27;;;;;;;23.25;23.24;99408.50;4988455;28;106416;-73
2022/03/29 13:03:23;;;;;;;17.98;11.80;;;;;;;23.81;22.71;99396.69;4987994;28;106431;-78
2022/03/29 13:05:49;;;;;;;16.48;11.75;;;;;;;24.52;22.03;99400.16;4987925;28;106160;-75
2022/03/29 13:08:19;;;;;;;19.40;12.05;;;;;;;24.49;21.92;99384.41;4987618;28;111680;-70
2022/03/29 13:10:46;;;;;;;20.60;12.40;;;;;;;24.16;21.97;99393.03;4988777;28;106364;-73
2022/03/29 13:13:22;;;;;;;16.17;12.30;;;;;;;23.46;22.54;99401.97;4987258;28;106402;-73
2022/03/29 13:16:00;;;;;;;18.60;11.55;;;;;;;23.03;23.24;99392.47;4986834;28;106328;-70
2022/03/29 13:18:32;;;;;;;16.80;10.93;;;;;;;22.67;23.60;99397.91;4987069;28;105989;-78
2022/03/29 13:21:15;;;;;;;19.00;11.93;;;;;;;21.97;24.33;99399.06;4988469;28;106163;-75
2022/03/29 13:23:49;;;;;;;21.35;12.88;;;;;;;21.67;24.64;99392.41;4987271;28;106384;-73
2022/03/29 13:26:18;;;;;;;20.75;13.45;;;;;;;21.54;25.09;99380.16;4987506;28;106419;-74
2022/03/29 13:28:44;;;;;;;21.80;13.07;;;;;;;21.23;25.37;99384.53;4989586;28;105984;-79
2022/03/29 13:31:14;;;;;;;18.40;12.15;;;;;;;20.93;25.46;99375.09;4989052;28;106193;-76
2022/03/29 13:33:40;;;;;;;18.92;11.75;;;;;;;20.59;25.88;99369.91;4990032;28;106555;-71
2022/03/29 13:36:08;;;;;;;20.55;12.70;;;;;;;20.12;26.32;99365.94;4988703;28;106166;-76
2022/03/29 13:38:34;;;;;;;20.30;12.55;;;;;;;19.22;27.52;99369.59;4989455;28;106413;-77
2022/03/29 13:40:59;;;;;;;17.38;12.88;;;;;;;18.43;28.42;99375.84;4990086;28;106366;-77
2022/03/29 13:43:25;;;;;;;20.13;12.65;;;;;;;17.65;29.30;99376.16;4989297;28;106275;-78
2022/03/29 13:45:51;;;;;;;19.00;11.95;;;;;;;16.99;30.31;99380.84;4989085;28;106038;-79
2022/03/29 13:48:16;;;;;;;19.10;12.27;;;;;;;16.45;30.82;99367.38;4989157;28;106002;-79
2022/03/29 13:50:42;;;;;;;19.27;13.02;;;;;;;16.11;31.52;99378.56;4989646;28;105931;-79
2022/03/29 13:53:08;;;;;;;17.60;12.32;;;;;;;15.94;31.90;99364.13;4988540;28;106075;-74
2022/03/29 13:55:34;;;;;;;19.13;13.00;;;;;;;15.82;32.45;99364.88;4988834;28;106244;-71
2022/03/29 13:58:04;;;;;;;18.30;12.75;;;;;;;15.92;32.42;99356.28;4988913;28;105931;-72
2022/03/29 14:00:39;;;;;;;17.25;12.57;;;;;;;15.96;32.32;99364.72;4989387;28;105807;-75
2022/03/29 14:03:08;;;;;;;18.80;12.70;;;;;;;15.94;32.38;99358.75;4987653;28;106153;-75
2022/03/29 14:05:33;;;;;;;23.35;14.35;;;;;;;15.70;32.87;99359.41;4988676;28;105992;-75
